Aérodrome :
LOGIN :

S'inscrire | Disclaimer

   EN    FR    IT 

 










Légende :    VFR   VFR Marginal   IFR   IFR Intensif   IFR Très Intensif
Visi : 
Plafond : 
>= 8 km
>= 3000ft
5 à 8 km
1000 à 3000 ft
1500m à 5 km
500 à 1000 ft
800 à 1500m
200 à 500 ft
< 800m
< 200 ft
Symboles :   Orages  Brouillard  Fortes neiges  Fortes précipitations  Vent > 20 kt
SIGMETs :   Divers  Orages  Givrage  Turbulence  Onde Orograph.  Cendres Volcan.






- Altitude de l'aérodrome : 299 ft
- Code IATA : EDM


LFRI - La Roche Sur Yon - Les Ajoncs

DERNIER METAR :
  • 200300Z AUTO 18006KT 9999 FEW031 OVC038 09/07 Q1022

METARs EXPIRÉS :
  • 200230Z AUTO 19007KT 9999 OVC037 09/08 Q1022
  • 200200Z AUTO 18007KT 9999 OVC036 09/08 Q1023
  • 200130Z AUTO 19005KT 9999 OVC039 09/07 Q1023
  • 200100Z AUTO 18006KT 9999 OVC040 08/07 Q1023
  • 200030Z AUTO 19006KT 9999 FEW030 OVC039 09/07 Q1024

TAF TAF LFRI
Valide du 19 à 18h jusqu'au 20 à 18h UTC


191700Z 1918/2018 24008KT 9999 SCT020 BKN035
PROB30
TEMPO 1920/2006 4500 -RA BKN012 BKN040
BECMG 2010/2012 21015G25KT
BECMG 2015/2017 30015G30KT 3000 RA BKN012 BKN030



MET'MAP, la Météo Aéronautique d'un coup d'oeil ! - Copyright ORBIFLY Décembre 2007 - Disclaimer

ORBIFLY MET'MAP TEAM :

Programmation & Développement : Alexandra Zaïnal
Sur une idée originale de : Baudouin d'Aumeries
Assistance à la programmation : Marc-Olivier Méhu
Soutien technique & logistique : Manuel Goepfert

Contact : metmap@orbifly.com




SOURCES & CREDITS :

   NOAA